sensor_id;sensor_type;location;lat;lon;timestamp;pressure;altitude;pressure_sealevel;temperature;humidity
80382;BME280;69692;55.820;37.490;2023-07-30T00:02:19;98831.50;;;15.14;89.48
80382;BME280;69692;55.820;37.490;2023-07-30T00:04:45;98823.69;;;15.07;89.53
80382;BME280;69692;55.820;37.490;2023-07-30T00:07:12;98833.22;;;15.05;89.32
80382;BME280;69692;55.820;37.490;2023-07-30T00:09:38;98823.47;;;14.99;89.74
80382;BME280;69692;55.820;37.490;2023-07-30T00:12:05;98832.97;;;14.96;90.00
80382;BME280;69692;55.820;37.490;2023-07-30T00:14:31;98828.13;;;14.93;89.86
80382;BME280;69692;55.820;37.490;2023-07-30T00:16:57;98823.50;;;14.94;89.94
80382;BME280;69692;55.820;37.490;2023-07-30T00:19:23;98822.41;;;14.95;89.69
80382;BME280;69692;55.820;37.490;2023-07-30T00:21:49;98817.28;;;14.93;89.49
80382;BME280;69692;55.820;37.490;2023-07-30T00:24:14;98820.22;;;14.97;90.04
80382;BME280;69692;55.820;37.490;2023-07-30T00:26:40;98825.63;;;15.02;89.91
80382;BME280;69692;55.820;37.490;2023-07-30T00:29:06;98819.91;;;15.08;90.30
80382;BME280;69692;55.820;37.490;2023-07-30T00:31:32;98812.03;;;15.12;89.27
80382;BME280;69692;55.820;37.490;2023-07-30T00:33:58;98823.13;;;15.10;88.45
80382;BME280;69692;55.820;37.490;2023-07-30T00:36:24;98817.19;;;15.08;88.53
80382;BME280;69692;55.820;37.490;2023-07-30T00:38:50;98818.03;;;15.04;88.65
80382;BME280;69692;55.820;37.490;2023-07-30T00:41:15;98817.78;;;15.00;89.25
80382;BME280;69692;55.820;37.490;2023-07-30T00:43:41;98818.28;;;15.02;89.39
80382;BME280;69692;55.820;37.490;2023-07-30T00:46:08;98815.06;;;15.05;88.92
80382;BME280;69692;55.820;37.490;2023-07-30T00:48:34;98802.59;;;15.04;88.63
80382;BME280;69692;55.820;37.490;2023-07-30T00:51:00;98805.84;;;15.06;88.23
80382;BME280;69692;55.820;37.490;2023-07-30T00:53:27;98794.72;;;15.08;88.13
80382;BME280;69692;55.820;37.490;2023-07-30T00:55:54;98797.47;;;15.03;88.50
80382;BME280;69692;55.820;37.490;2023-07-30T00:58:23;98808.84;;;15.00;88.24
80382;BME280;69692;55.820;37.490;2023-07-30T01:00:51;98810.72;;;14.99;88.71
80382;BME280;69692;55.820;37.490;2023-07-30T01:03:18;98806.97;;;14.95;88.32
80382;BME280;69692;55.820;37.490;2023-07-30T01:05:44;98801.06;;;14.88;88.91
80382;BME280;69692;55.820;37.490;2023-07-30T01:08:11;98802.97;;;14.82;89.16
80382;BME280;69692;55.820;37.490;2023-07-30T01:10:37;98796.75;;;14.82;89.02
80382;BME280;69692;55.820;37.490;2023-07-30T01:13:04;98800.25;;;14.82;88.47
80382;BME280;69692;55.820;37.490;2023-07-30T01:15:31;98801.34;;;14.81;88.46
80382;BME280;69692;55.820;37.490;2023-07-30T01:17:57;98795.69;;;14.78;88.52
80382;BME280;69692;55.820;37.490;2023-07-30T01:20:24;98801.13;;;14.73;88.75
80382;BME280;69692;55.820;37.490;2023-07-30T01:22:49;98798.41;;;14.73;89.00
80382;BME280;69692;55.820;37.490;2023-07-30T01:25:15;98796.53;;;14.73;88.75
80382;BME280;69692;55.820;37.490;2023-07-30T01:27:45;98791.38;;;14.77;88.43
80382;BME280;69692;55.820;37.490;2023-07-30T01:30:25;98789.50;;;14.67;88.81
80382;BME280;69692;55.820;37.490;2023-07-30T01:32:52;98786.28;;;14.65;89.07
80382;BME280;69692;55.820;37.490;2023-07-30T01:35:26;98794.13;;;14.67;88.58
80382;BME280;69692;55.820;37.490;2023-07-30T01:37:53;98790.56;;;14.71;88.92
80382;BME280;69692;55.820;37.490;2023-07-30T01:40:21;98800.06;;;14.74;88.46
80382;BME280;69692;55.820;37.490;2023-07-30T01:42:49;98800.88;;;14.74;88.57
80382;BME280;69692;55.820;37.490;2023-07-30T01:45:17;98798.44;;;14.68;88.67
80382;BME280;69692;55.820;37.490;2023-07-30T01:47:43;98800.09;;;14.64;88.52
80382;BME280;69692;55.820;37.490;2023-07-30T01:50:09;98808.78;;;14.60;89.02
80382;BME280;69692;55.820;37.490;2023-07-30T01:52:36;98801.19;;;14.63;89.16
80382;BME280;69692;55.820;37.490;2023-07-30T01:55:02;98807.38;;;14.68;88.90
80382;BME280;69692;55.820;37.490;2023-07-30T01:57:31;98807.09;;;14.70;88.67
80382;BME280;69692;55.820;37.490;2023-07-30T01:59:59;98810.88;;;14.74;87.67
80382;BME280;69692;55.820;37.490;2023-07-30T02:02:26;98814.13;;;14.76;88.01
80382;BME280;69692;55.820;37.490;2023-07-30T02:04:53;98821.41;;;14.80;87.81
80382;BME280;69692;55.820;37.490;2023-07-30T02:07:19;98812.19;;;14.81;87.61
80382;BME280;69692;55.820;37.490;2023-07-30T02:09:45;98813.25;;;14.85;87.40
80382;BME280;69692;55.820;37.490;2023-07-30T02:12:11;98812.97;;;14.87;86.93
80382;BME280;69692;55.820;37.490;2023-07-30T02:14:38;98810.53;;;14.90;86.68
80382;BME280;69692;55.820;37.490;2023-07-30T02:17:08;98811.06;;;14.93;86.52
80382;BME280;69692;55.820;37.490;2023-07-30T02:19:34;98814.31;;;14.89;86.53
80382;BME280;69692;55.820;37.490;2023-07-30T02:22:01;98813.78;;;14.87;86.55
80382;BME280;69692;55.820;37.490;2023-07-30T02:24:27;98819.19;;;14.93;86.46
80382;BME280;69692;55.820;37.490;2023-07-30T02:26:54;98812.63;;;14.99;86.05
80382;BME280;69692;55.820;37.490;2023-07-30T02:29:20;98813.19;;;14.96;85.95
80382;BME280;69692;55.820;37.490;2023-07-30T02:31:47;98821.56;;;14.99;85.93
80382;BME280;69692;55.820;37.490;2023-07-30T02:34:13;98807.22;;;14.99;85.77
80382;BME280;69692;55.820;37.490;2023-07-30T02:36:39;98813.72;;;15.03;86.37
80382;BME280;69692;55.820;37.490;2023-07-30T02:39:04;98819.94;;;15.03;85.91
80382;BME280;69692;55.820;37.490;2023-07-30T02:41:30;98822.66;;;15.03;85.72
80382;BME280;69692;55.820;37.490;2023-07-30T02:43:56;98828.88;;;14.99;85.87
80382;BME280;69692;55.820;37.490;2023-07-30T02:46:22;98831.31;;;15.00;85.93
80382;BME280;69692;55.820;37.490;2023-07-30T02:48:48;98818.63;;;14.96;85.92
80382;BME280;69692;55.820;37.490;2023-07-30T02:51:13;98828.34;;;14.97;86.10
80382;BME280;69692;55.820;37.490;2023-07-30T02:53:39;98831.06;;;14.97;85.96
80382;BME280;69692;55.820;37.490;2023-07-30T02:56:05;98824.28;;;14.99;85.85
80382;BME280;69692;55.820;37.490;2023-07-30T02:58:31;98829.97;;;15.03;86.00
80382;BME280;69692;55.820;37.490;2023-07-30T03:01:05;98824.28;;;15.04;85.95
80382;BME280;69692;55.820;37.490;2023-07-30T03:03:31;98827.50;;;15.01;85.69
80382;BME280;69692;55.820;37.490;2023-07-30T03:05:57;98832.41;;;15.04;85.88
80382;BME280;69692;55.820;37.490;2023-07-30T03:08:23;98833.97;;;15.10;85.39
80382;BME280;69692;55.820;37.490;2023-07-30T03:10:49;98840.19;;;15.11;85.39
80382;BME280;69692;55.820;37.490;2023-07-30T03:13:14;98837.50;;;15.11;85.85
80382;BME280;69692;55.820;37.490;2023-07-30T03:15:40;98842.91;;;15.11;85.68
80382;BME280;69692;55.820;37.490;2023-07-30T03:18:06;98839.63;;;15.14;85.77
80382;BME280;69692;55.820;37.490;2023-07-30T03:20:32;98840.44;;;15.19;85.41
80382;BME280;69692;55.820;37.490;2023-07-30T03:22:58;98842.59;;;15.17;85.48
80382;BME280;69692;55.820;37.490;2023-07-30T03:25:23;98841.50;;;15.24;85.53
80382;BME280;69692;55.820;37.490;2023-07-30T03:27:49;98842.81;;;15.26;85.28
80382;BME280;69692;55.820;37.490;2023-07-30T03:30:15;98840.34;;;15.30;85.21
80382;BME280;69692;55.820;37.490;2023-07-30T03:32:41;98852.53;;;15.32;85.28
80382;BME280;69692;55.820;37.490;2023-07-30T03:35:07;98840.06;;;15.36;85.45
80382;BME280;69692;55.820;37.490;2023-07-30T03:37:34;98844.34;;;15.42;85.22
80382;BME280;69692;55.820;37.490;2023-07-30T03:40:00;98850.28;;;15.44;84.84
80382;BME280;69692;55.820;37.490;2023-07-30T03:42:26;98841.63;;;15.42;85.25
80382;BME280;69692;55.820;37.490;2023-07-30T03:44:52;98845.38;;;15.46;85.64
80382;BME280;69692;55.820;37.490;2023-07-30T03:47:18;98851.31;;;15.54;85.86
80382;BME280;69692;55.820;37.490;2023-07-30T03:49:43;98852.91;;;15.60;85.04
80382;BME280;69692;55.820;37.490;2023-07-30T03:52:10;98851.22;;;15.69;84.81
80382;BME280;69692;55.820;37.490;2023-07-30T03:54:35;98857.13;;;15.76;84.84
80382;BME280;69692;55.820;37.490;2023-07-30T03:57:01;98860.88;;;15.85;84.35
80382;BME280;69692;55.820;37.490;2023-07-30T03:59:27;98855.66;;;15.89;84.13
80382;BME280;69692;55.820;37.490;2023-07-30T04:01:55;98857.50;;;15.98;83.83
80382;BME280;69692;55.820;37.490;2023-07-30T04:04:23;98859.31;;;16.08;83.68
80382;BME280;69692;55.820;37.490;2023-07-30T04:06:49;98853.53;;;16.15;83.66
80382;BME280;69692;55.820;37.490;2023-07-30T04:09:15;98859.50;;;16.17;85.42
80382;BME280;69692;55.820;37.490;2023-07-30T04:11:41;98856.72;;;16.22;83.68
80382;BME280;69692;55.820;37.490;2023-07-30T04:14:07;98869.69;;;16.30;82.16
80382;BME280;69692;55.820;37.490;2023-07-30T04:16:34;98863.91;;;16.36;81.57
80382;BME280;69692;55.820;37.490;2023-07-30T04:19:00;98868.72;;;16.45;82.37
80382;BME280;69692;55.820;37.490;2023-07-30T04:21:27;98871.91;;;16.52;81.54
80382;BME280;69692;55.820;37.490;2023-07-30T04:23:53;98874.84;;;16.55;80.92
80382;BME280;69692;55.820;37.490;2023-07-30T04:26:18;98872.28;;;16.64;80.89
80382;BME280;69692;55.820;37.490;2023-07-30T04:28:45;98877.94;;;16.73;81.10
80382;BME280;69692;55.820;37.490;2023-07-30T04:31:11;98886.03;;;16.78;80.75
80382;BME280;69692;55.820;37.490;2023-07-30T04:33:37;98881.91;;;16.80;80.79
80382;BME280;69692;55.820;37.490;2023-07-30T04:36:04;98887.31;;;16.85;80.50
80382;BME280;69692;55.820;37.490;2023-07-30T04:38:30;98891.63;;;16.86;80.35
80382;BME280;69692;55.820;37.490;2023-07-30T04:40:58;98888.34;;;16.89;80.18
80382;BME280;69692;55.820;37.490;2023-07-30T04:43:25;98891.56;;;16.91;79.77
80382;BME280;69692;55.820;37.490;2023-07-30T04:45:56;98880.19;;;16.89;80.09
80382;BME280;69692;55.820;37.490;2023-07-30T04:48:22;98888.56;;;16.93;80.06
80382;BME280;69692;55.820;37.490;2023-07-30T04:50:48;98888.25;;;16.94;80.20
80382;BME280;69692;55.820;37.490;2023-07-30T04:53:14;98888.50;;;16.98;80.28
80382;BME280;69692;55.820;37.490;2023-07-30T04:55:43;98894.97;;;17.02;80.37
80382;BME280;69692;55.820;37.490;2023-07-30T04:58:09;98903.06;;;17.07;80.12
80382;BME280;69692;55.820;37.490;2023-07-30T05:00:36;98900.28;;;17.12;79.97
80382;BME280;69692;55.820;37.490;2023-07-30T05:03:03;98897.50;;;17.17;79.91
80382;BME280;69692;55.820;37.490;2023-07-30T05:05:29;98905.56;;;17.22;80.10
80382;BME280;69692;55.820;37.490;2023-07-30T05:07:55;98903.97;;;17.21;78.85
80382;BME280;69692;55.820;37.490;2023-07-30T05:10:22;98906.69;;;17.21;78.82
80382;BME280;69692;55.820;37.490;2023-07-30T05:12:48;98911.00;;;17.22;78.89
80382;BME280;69692;55.820;37.490;2023-07-30T05:15:14;98915.34;;;17.23;78.87
80382;BME280;69692;55.820;37.490;2023-07-30T05:17:41;98914.53;;;17.23;79.26
80382;BME280;69692;55.820;37.490;2023-07-30T05:20:07;98921.03;;;17.27;78.24
80382;BME280;69692;55.820;37.490;2023-07-30T05:22:34;98918.88;;;17.24;78.64
80382;BME280;69692;55.820;37.490;2023-07-30T05:25:00;98915.00;;;17.30;78.31
80382;BME280;69692;55.820;37.490;2023-07-30T05:27:26;98918.44;;;17.36;78.52
80382;BME280;69692;55.820;37.490;2023-07-30T05:29:54;98918.97;;;17.38;78.42
80382;BME280;69692;55.820;37.490;2023-07-30T05:32:21;98920.59;;;17.39;78.39
80382;BME280;69692;55.820;37.490;2023-07-30T05:34:47;98927.13;;;17.38;77.82
80382;BME280;69692;55.820;37.490;2023-07-30T05:37:13;98920.88;;;17.37;77.92
80382;BME280;69692;55.820;37.490;2023-07-30T05:39:39;98926.81;;;17.39;78.00
80382;BME280;69692;55.820;37.490;2023-07-30T05:42:05;98916.53;;;17.36;77.79
80382;BME280;69692;55.820;37.490;2023-07-30T05:44:30;98921.94;;;17.41;77.74
80382;BME280;69692;55.820;37.490;2023-07-30T05:46:56;98923.81;;;17.41;77.85
80382;BME280;69692;55.820;37.490;2023-07-30T05:49:22;98915.66;;;17.41;77.64
80382;BME280;69692;55.820;37.490;2023-07-30T05:51:48;98922.66;;;17.47;77.91
80382;BME280;69692;55.820;37.490;2023-07-30T05:54:14;98920.16;;;17.50;78.13
80382;BME280;69692;55.820;37.490;2023-07-30T05:56:39;98921.19;;;17.54;78.00
80382;BME280;69692;55.820;37.490;2023-07-30T05:59:05;98910.53;;;17.58;78.45
80382;BME280;69692;55.820;37.490;2023-07-30T06:01:31;98915.97;;;17.58;76.96
80382;BME280;69692;55.820;37.490;2023-07-30T06:03:57;98914.94;;;17.54;77.54
80382;BME280;69692;55.820;37.490;2023-07-30T06:06:23;98912.16;;;17.59;77.09
80382;BME280;69692;55.820;37.490;2023-07-30T06:08:54;98915.69;;;17.59;77.41
80382;BME280;69692;55.820;37.490;2023-07-30T06:11:20;98902.38;;;17.58;76.58
80382;BME280;69692;55.820;37.490;2023-07-30T06:13:46;98905.31;;;17.62;76.80
80382;BME280;69692;55.820;37.490;2023-07-30T06:16:12;98912.06;;;17.64;76.66
80382;BME280;69692;55.820;37.490;2023-07-30T06:18:38;98910.16;;;17.65;75.90
80382;BME280;69692;55.820;37.490;2023-07-30T06:21:04;98910.66;;;17.72;76.45
80382;BME280;69692;55.820;37.490;2023-07-30T06:23:30;98899.47;;;17.73;76.26
80382;BME280;69692;55.820;37.490;2023-07-30T06:25:55;98899.97;;;17.75;75.65
80382;BME280;69692;55.820;37.490;2023-07-30T06:28:21;98888.09;;;17.85;75.54
80382;BME280;69692;55.820;37.490;2023-07-30T06:30:47;98896.63;;;17.97;74.64
80382;BME280;69692;55.820;37.490;2023-07-30T06:33:13;98888.59;;;18.06;75.21
80382;BME280;69692;55.820;37.490;2023-07-30T06:35:39;98890.63;;;18.14;74.43
80382;BME280;69692;55.820;37.490;2023-07-30T06:38:07;98894.28;;;18.23;74.63
80382;BME280;69692;55.820;37.490;2023-07-30T06:40:33;98887.03;;;18.32;74.29
80382;BME280;69692;55.820;37.490;2023-07-30T06:42:59;98883.00;;;18.43;72.52
80382;BME280;69692;55.820;37.490;2023-07-30T06:45:25;98880.31;;;18.57;72.24
80382;BME280;69692;55.820;37.490;2023-07-30T06:47:51;98884.38;;;18.73;72.69
80382;BME280;69692;55.820;37.490;2023-07-30T06:50:17;98878.44;;;18.85;71.61
80382;BME280;69692;55.820;37.490;2023-07-30T06:52:43;98884.50;;;18.96;71.23
80382;BME280;69692;55.820;37.490;2023-07-30T06:55:09;98875.78;;;19.08;71.48
80382;BME280;69692;55.820;37.490;2023-07-30T06:57:36;98876.97;;;19.15;70.68
80382;BME280;69692;55.820;37.490;2023-07-30T07:00:02;98876.19;;;19.15;71.62
80382;BME280;69692;55.820;37.490;2023-07-30T07:02:33;98874.97;;;19.21;71.00
80382;BME280;69692;55.820;37.490;2023-07-30T07:05:00;98869.53;;;19.21;69.92
80382;BME280;69692;55.820;37.490;2023-07-30T07:07:26;98875.97;;;19.25;69.32
80382;BME280;69692;55.820;37.490;2023-07-30T07:09:52;98876.16;;;19.28;69.24
80382;BME280;69692;55.820;37.490;2023-07-30T07:12:18;98872.91;;;19.40;69.11
80382;BME280;69692;55.820;37.490;2023-07-30T07:14:44;98875.69;;;19.49;68.77
80382;BME280;69692;55.820;37.490;2023-07-30T07:17:10;98874.69;;;19.58;69.50
80382;BME280;69692;55.820;37.490;2023-07-30T07:19:36;98877.53;;;19.76;71.62
80382;BME280;69692;55.820;37.490;2023-07-30T07:22:04;98873.34;;;20.45;74.98
80382;BME280;69692;55.820;37.490;2023-07-30T07:24:30;98856.34;;;21.05;69.29
80382;BME280;69692;55.820;37.490;2023-07-30T07:26:57;98863.53;;;21.58;70.84
80382;BME280;69692;55.820;37.490;2023-07-30T07:29:24;98869.31;;;21.91;69.03
80382;BME280;69692;55.820;37.490;2023-07-30T07:31:50;98862.88;;;21.79;63.06
80382;BME280;69692;55.820;37.490;2023-07-30T07:34:16;98861.13;;;21.74;63.06
80382;BME280;69692;55.820;37.490;2023-07-30T07:36:42;98862.22;;;21.56;61.45
80382;BME280;69692;55.820;37.490;2023-07-30T07:39:08;98858.84;;;21.41;63.44
80382;BME280;69692;55.820;37.490;2023-07-30T07:41:34;98855.00;;;21.51;62.73
80382;BME280;69692;55.820;37.490;2023-07-30T07:43:59;98863.03;;;21.65;61.65
80382;BME280;69692;55.820;37.490;2023-07-30T07:46:25;98856.94;;;21.77;61.21
80382;BME280;69692;55.820;37.490;2023-07-30T07:48:53;98859.50;;;21.90;61.12
80382;BME280;69692;55.820;37.490;2023-07-30T07:51:19;98854.44;;;22.01;60.86
80382;BME280;69692;55.820;37.490;2023-07-30T07:53:45;98856.09;;;22.19;61.04
80382;BME280;69692;55.820;37.490;2023-07-30T07:56:12;98849.41;;;22.29;60.42
80382;BME280;69692;55.820;37.490;2023-07-30T07:58:38;98851.28;;;22.54;59.05
80382;BME280;69692;55.820;37.490;2023-07-30T08:01:04;98849.25;;;22.72;58.61
80382;BME280;69692;55.820;37.490;2023-07-30T08:03:30;98844.25;;;22.74;58.50
80382;BME280;69692;55.820;37.490;2023-07-30T08:05:56;98839.19;;;22.94;57.95
80382;BME280;69692;55.820;37.490;2023-07-30T08:08:23;98846.28;;;22.95;57.64
80382;BME280;69692;55.820;37.490;2023-07-30T08:10:49;98839.09;;;22.73;57.37
80382;BME280;69692;55.820;37.490;2023-07-30T08:13:15;98849.81;;;22.57;59.21
80382;BME280;69692;55.820;37.490;2023-07-30T08:15:41;98845.34;;;22.44;59.04
80382;BME280;69692;55.820;37.490;2023-07-30T08:18:07;98845.25;;;22.23;57.59
80382;BME280;69692;55.820;37.490;2023-07-30T08:20:32;98851.41;;;22.02;58.60
80382;BME280;69692;55.820;37.490;2023-07-30T08:22:58;98857.41;;;21.87;60.22
80382;BME280;69692;55.820;37.490;2023-07-30T08:25:24;98854.16;;;21.94;58.87
80382;BME280;69692;55.820;37.490;2023-07-30T08:27:50;98849.78;;;22.01;58.36
80382;BME280;69692;55.820;37.490;2023-07-30T08:30:16;98855.75;;;22.12;56.07
80382;BME280;69692;55.820;37.490;2023-07-30T08:32:42;98858.03;;;22.10;56.99
80382;BME280;69692;55.820;37.490;2023-07-30T08:35:09;98850.13;;;22.17;58.11
80382;BME280;69692;55.820;37.490;2023-07-30T08:37:36;98856.97;;;22.41;57.60
80382;BME280;69692;55.820;37.490;2023-07-30T08:40:02;98857.97;;;22.36;57.87
80382;BME280;69692;55.820;37.490;2023-07-30T08:42:29;98866.84;;;22.24;57.67
80382;BME280;69692;55.820;37.490;2023-07-30T08:44:55;98868.97;;;22.19;56.72
80382;BME280;69692;55.820;37.490;2023-07-30T08:47:21;98864.38;;;22.40;56.05
80382;BME280;69692;55.820;37.490;2023-07-30T08:49:47;98869.13;;;22.60;53.55
80382;BME280;69692;55.820;37.490;2023-07-30T08:52:13;98862.06;;;22.59;54.39
80382;BME280;69692;55.820;37.490;2023-07-30T08:54:40;98861.22;;;22.68;54.74
80382;BME280;69692;55.820;37.490;2023-07-30T08:57:07;98855.44;;;22.60;54.39
80382;BME280;69692;55.820;37.490;2023-07-30T08:59:45;98859.84;;;22.53;55.10
80382;BME280;69692;55.820;37.490;2023-07-30T09:02:58;98862.16;;;22.34;55.15
80382;BME280;69692;55.820;37.490;2023-07-30T09:05:05;98859.16;;;22.56;56.52
80382;BME280;69692;55.820;37.490;2023-07-30T09:07:31;98854.94;;;22.67;52.99
80382;BME280;69692;55.820;37.490;2023-07-30T09:09:58;98856.44;;;22.94;52.45
80382;BME280;69692;55.820;37.490;2023-07-30T09:12:33;98867.13;;;23.16;52.16
80382;BME280;69692;55.820;37.490;2023-07-30T09:14:59;98862.97;;;23.31;53.64
80382;BME280;69692;55.820;37.490;2023-07-30T09:17:30;98867.19;;;23.49;51.96
80382;BME280;69692;55.820;37.490;2023-07-30T09:19:59;98862.31;;;23.55;49.60
80382;BME280;69692;55.820;37.490;2023-07-30T09:22:30;98862.72;;;23.45;49.71
80382;BME280;69692;55.820;37.490;2023-07-30T09:25:01;98857.44;;;23.40;50.14
80382;BME280;69692;55.820;37.490;2023-07-30T09:27:29;98863.28;;;23.38;50.66
80382;BME280;69692;55.820;37.490;2023-07-30T09:29:56;98864.78;;;23.48;52.06
80382;BME280;69692;55.820;37.490;2023-07-30T09:32:33;98870.38;;;23.39;51.47
80382;BME280;69692;55.820;37.490;2023-07-30T09:35:06;98868.88;;;23.42;51.40
80382;BME280;69692;55.820;37.490;2023-07-30T09:37:35;98873.75;;;23.66;50.19
80382;BME280;69692;55.820;37.490;2023-07-30T09:40:04;98870.91;;;23.74;49.76
80382;BME280;69692;55.820;37.490;2023-07-30T09:42:30;98869.91;;;23.58;49.37
80382;BME280;69692;55.820;37.490;2023-07-30T09:44:58;98872.41;;;23.72;60.69
80382;BME280;69692;55.820;37.490;2023-07-30T09:47:26;98870.84;;;23.83;50.58
80382;BME280;69692;55.820;37.490;2023-07-30T09:49:53;98868.28;;;23.99;48.34
80382;BME280;69692;55.820;37.490;2023-07-30T09:52:20;98866.19;;;24.29;46.72
80382;BME280;69692;55.820;37.490;2023-07-30T09:54:49;98875.91;;;24.59;47.77
80382;BME280;69692;55.820;37.490;2023-07-30T09:57:15;98878.53;;;24.56;46.67
80382;BME280;69692;55.820;37.490;2023-07-30T09:59:41;98872.19;;;24.31;47.88
80382;BME280;69692;55.820;37.490;2023-07-30T10:02:08;98873.69;;;24.41;48.17
80382;BME280;69692;55.820;37.490;2023-07-30T10:04:42;98877.09;;;24.04;48.62
80382;BME280;69692;55.820;37.490;2023-07-30T10:07:11;98884.13;;;24.14;49.13
80382;BME280;69692;55.820;37.490;2023-07-30T10:09:42;98874.66;;;23.91;48.84
80382;BME280;69692;55.820;37.490;2023-07-30T10:12:16;98883.25;;;23.68;48.44
80382;BME280;69692;55.820;37.490;2023-07-30T10:14:43;98881.38;;;24.14;48.68
80382;BME280;69692;55.820;37.490;2023-07-30T10:17:10;98870.94;;;24.53;46.79
80382;BME280;69692;55.820;37.490;2023-07-30T10:19:37;98872.06;;;24.39;47.22
80382;BME280;69692;55.820;37.490;2023-07-30T10:24:38;98880.97;;;23.70;48.21
80382;BME280;69692;55.820;37.490;2023-07-30T10:27:09;98878.63;;;24.14;47.60
80382;BME280;69692;55.820;37.490;2023-07-30T10:29:40;98877.16;;;24.74;45.28
80382;BME280;69692;55.820;37.490;2023-07-30T10:32:07;98877.38;;;24.57;45.72
80382;BME280;69692;55.820;37.490;2023-07-30T10:34:47;98883.69;;;24.69;44.74
80382;BME280;69692;55.820;37.490;2023-07-30T10:37:22;98882.59;;;25.07;44.88
80382;BME280;69692;55.820;37.490;2023-07-30T10:39:49;98881.84;;;24.61;44.21
80382;BME280;69692;55.820;37.490;2023-07-30T10:42:15;98892.50;;;24.18;45.77
80382;BME280;69692;55.820;37.490;2023-07-30T10:44:44;98887.94;;;23.68;46.94
80382;BME280;69692;55.820;37.490;2023-07-30T10:47:10;98891.53;;;23.80;47.18
80382;BME280;69692;55.820;37.490;2023-07-30T10:49:37;98884.59;;;24.49;45.74
80382;BME280;69692;55.820;37.490;2023-07-30T10:52:04;98885.19;;;24.91;44.49
80382;BME280;69692;55.820;37.490;2023-07-30T10:54:33;98878.44;;;24.77;46.00
80382;BME280;69692;55.820;37.490;2023-07-30T10:57:00;98877.13;;;24.50;44.97
80382;BME280;69692;55.820;37.490;2023-07-30T10:59:26;98877.78;;;25.04;44.88
80382;BME280;69692;55.820;37.490;2023-07-30T11:01:58;98871.38;;;25.52;42.25
80382;BME280;69692;55.820;37.490;2023-07-30T11:04:24;98878.59;;;25.69;42.88
80382;BME280;69692;55.820;37.490;2023-07-30T11:06:51;98874.78;;;25.74;42.65
80382;BME280;69692;55.820;37.490;2023-07-30T11:09:21;98881.44;;;25.73;46.96
80382;BME280;69692;55.820;37.490;2023-07-30T11:11:48;98881.91;;;25.63;52.46
80382;BME280;69692;55.820;37.490;2023-07-30T11:14:18;98881.63;;;25.27;46.76
80382;BME280;69692;55.820;37.490;2023-07-30T11:17:06;98877.97;;;24.87;47.08
80382;BME280;69692;55.820;37.490;2023-07-30T11:19:32;98884.00;;;24.44;47.34
80382;BME280;69692;55.820;37.490;2023-07-30T11:21:59;98883.63;;;24.00;47.02
80382;BME280;69692;55.820;37.490;2023-07-30T11:24:35;98882.13;;;23.69;46.15
80382;BME280;69692;55.820;37.490;2023-07-30T11:27:02;98880.22;;;23.40;47.60
80382;BME280;69692;55.820;37.490;2023-07-30T11:29:28;98882.56;;;24.25;45.63
80382;BME280;69692;55.820;37.490;2023-07-30T11:31:58;98878.75;;;24.63;44.73
80382;BME280;69692;55.820;37.490;2023-07-30T11:34:26;98869.72;;;25.23;43.24
80382;BME280;69692;55.820;37.490;2023-07-30T11:36:54;98868.22;;;25.78;42.77
80382;BME280;69692;55.820;37.490;2023-07-30T11:39:20;98868.25;;;26.50;40.52
80382;BME280;69692;55.820;37.490;2023-07-30T11:41:47;98874.28;;;27.03;40.65
80382;BME280;69692;55.820;37.490;2023-07-30T11:44:34;98874.53;;;27.49;39.44
80382;BME280;69692;55.820;37.490;2023-07-30T11:47:00;98876.28;;;27.57;39.67
80382;BME280;69692;55.820;37.490;2023-07-30T11:49:26;98876.19;;;27.69;38.04
80382;BME280;69692;55.820;37.490;2023-07-30T11:52:07;98872.16;;;26.65;39.36
80382;BME280;69692;55.820;37.490;2023-07-30T11:54:34;98876.41;;;26.19;40.79
80382;BME280;69692;55.820;37.490;2023-07-30T11:57:00;98879.13;;;26.03;41.53
80382;BME280;69692;55.820;37.490;2023-07-30T11:59:26;98880.31;;;26.45;39.94
80382;BME280;69692;55.820;37.490;2023-07-30T12:01:52;98881.59;;;26.80;39.22
80382;BME280;69692;55.820;37.490;2023-07-30T12:04:18;98878.09;;;26.98;38.76
80382;BME280;69692;55.820;37.490;2023-07-30T12:06:47;98875.59;;;27.25;38.17
80382;BME280;69692;55.820;37.490;2023-07-30T12:09:14;98866.97;;;27.46;40.11
80382;BME280;69692;55.820;37.490;2023-07-30T12:12:00;98870.31;;;27.20;38.39
80382;BME280;69692;55.820;37.490;2023-07-30T12:14:28;98874.97;;;27.00;38.53
80382;BME280;69692;55.820;37.490;2023-07-30T12:16:59;98877.25;;;27.29;38.26
80382;BME280;69692;55.820;37.490;2023-07-30T12:19:26;98874.03;;;27.08;39.49
80382;BME280;69692;55.820;37.490;2023-07-30T12:21:51;98880.25;;;27.05;39.11
80382;BME280;69692;55.820;37.490;2023-07-30T12:24:17;98878.47;;;27.13;39.50
80382;BME280;69692;55.820;37.490;2023-07-30T12:26:43;98873.78;;;27.32;38.96
80382;BME280;69692;55.820;37.490;2023-07-30T12:29:09;98874.13;;;27.66;38.42
80382;BME280;69692;55.820;37.490;2023-07-30T12:31:35;98876.19;;;27.88;38.13
80382;BME280;69692;55.820;37.490;2023-07-30T12:34:01;98881.66;;;27.50;35.40
80382;BME280;69692;55.820;37.490;2023-07-30T12:36:26;98880.47;;;27.51;36.69
80382;BME280;69692;55.820;37.490;2023-07-30T12:38:53;98881.56;;;27.27;37.54
80382;BME280;69692;55.820;37.490;2023-07-30T12:41:20;98876.50;;;26.97;37.64
80382;BME280;69692;55.820;37.490;2023-07-30T12:43:52;98881.81;;;27.22;37.48
80382;BME280;69692;55.820;37.490;2023-07-30T12:46:19;98874.00;;;27.24;36.87
80382;BME280;69692;55.820;37.490;2023-07-30T12:48:44;98868.38;;;27.20;37.30
80382;BME280;69692;55.820;37.490;2023-07-30T12:51:10;98878.00;;;27.26;37.57
80382;BME280;69692;55.820;37.490;2023-07-30T12:53:36;98882.59;;;27.22;38.28